createdAt,value
2023-01-30T00:00:09.695Z,1.70
2023-01-30T00:01:33.252Z,1.71
2023-01-30T00:02:35.995Z,1.71
2023-01-30T00:03:38.801Z,1.71
2023-01-30T00:04:41.934Z,1.72
2023-01-30T00:05:45.192Z,1.72
2023-01-30T00:06:47.983Z,1.73
2023-01-30T00:07:50.725Z,1.73
2023-01-30T00:08:53.507Z,1.74
2023-01-30T00:09:56.311Z,1.75
2023-01-30T00:11:03.716Z,1.76
2023-01-30T00:12:06.772Z,1.77
2023-01-30T00:13:10.173Z,1.77
2023-01-30T00:14:12.978Z,1.77
2023-01-30T00:15:15.765Z,1.78
2023-01-30T00:16:18.791Z,1.79
2023-01-30T00:17:21.892Z,1.79
2023-01-30T00:18:24.692Z,1.79
2023-01-30T00:19:27.439Z,1.80
2023-01-30T00:20:30.506Z,1.80
2023-01-30T00:21:33.367Z,1.79
2023-01-30T00:22:36.483Z,1.80
2023-01-30T00:23:39.277Z,1.80
2023-01-30T00:24:42.272Z,1.80
2023-01-30T00:25:46.277Z,1.81
2023-01-30T00:26:49.297Z,1.81
2023-01-30T00:27:52.065Z,1.80
2023-01-30T00:28:54.834Z,1.81
2023-01-30T00:30:02.804Z,1.81
2023-01-30T00:31:07.483Z,1.81
2023-01-30T00:32:10.283Z,1.81
2023-01-30T00:33:15.603Z,1.81
2023-01-30T00:34:18.465Z,1.82
2023-01-30T00:35:21.447Z,1.81
2023-01-30T00:36:24.316Z,1.80
2023-01-30T00:37:27.065Z,1.79
2023-01-30T00:38:29.857Z,1.79
2023-01-30T00:39:32.632Z,1.78
2023-01-30T00:40:37.993Z,1.77
2023-01-30T00:41:59.738Z,1.76
2023-01-30T00:43:21.267Z,1.75
2023-01-30T00:44:43.241Z,1.74
2023-01-30T00:46:05.243Z,1.73
2023-01-30T00:47:09.683Z,1.73
2023-01-30T00:48:12.548Z,1.73
2023-01-30T00:49:15.376Z,1.72
2023-01-30T00:50:18.210Z,1.72
2023-01-30T00:51:20.984Z,1.72
2023-01-30T00:52:23.721Z,1.72
2023-01-30T00:53:27.332Z,1.72
2023-01-30T00:54:30.825Z,1.72
2023-01-30T00:55:34.747Z,1.73
2023-01-30T00:56:37.629Z,1.73
2023-01-30T00:57:40.441Z,1.73
2023-01-30T00:58:43.203Z,1.73
2023-01-30T00:59:48.963Z,1.73
2023-01-30T01:00:52.781Z,1.73
2023-01-30T01:01:55.759Z,1.73
2023-01-30T01:02:58.677Z,1.74
2023-01-30T01:04:01.528Z,1.74
2023-01-30T01:05:04.408Z,1.74
2023-01-30T01:06:07.705Z,1.75
2023-01-30T01:07:10.779Z,1.75
2023-01-30T01:08:13.564Z,1.75
2023-01-30T01:09:16.415Z,1.76
2023-01-30T01:10:19.283Z,1.76
2023-01-30T01:11:25.097Z,1.75
2023-01-30T01:12:27.879Z,1.76
2023-01-30T01:13:30.663Z,1.75
2023-01-30T01:14:33.823Z,1.76
2023-01-30T01:15:36.775Z,1.76
2023-01-30T01:16:39.569Z,1.76
2023-01-30T01:17:42.788Z,1.76
2023-01-30T01:18:46.690Z,1.76
2023-01-30T01:19:49.474Z,1.76
2023-01-30T01:20:52.483Z,1.76
2023-01-30T01:21:55.374Z,1.76
2023-01-30T01:22:58.780Z,1.76
2023-01-30T01:24:01.680Z,1.76
2023-01-30T01:25:04.927Z,1.76
2023-01-30T01:26:08.540Z,1.76
2023-01-30T01:27:11.295Z,1.76
2023-01-30T01:28:16.192Z,1.76
2023-01-30T01:29:20.514Z,1.76
2023-01-30T01:30:23.371Z,1.75
2023-01-30T01:31:26.464Z,1.76
2023-01-30T01:32:31.404Z,1.76
2023-01-30T01:33:34.163Z,1.77
2023-01-30T01:34:36.915Z,1.76
2023-01-30T01:35:42.649Z,1.76
2023-01-30T01:36:54.471Z,1.76
2023-01-30T01:37:57.543Z,1.77
2023-01-30T01:39:00.856Z,1.78
2023-01-30T01:40:22.973Z,1.77
2023-01-30T01:41:25.789Z,1.77
2023-01-30T01:42:34.364Z,1.78
2023-01-30T01:43:38.525Z,1.78
2023-01-30T01:45:00.222Z,1.78
2023-01-30T01:46:09.044Z,1.78
2023-01-30T01:47:11.863Z,1.78
2023-01-30T01:48:19.131Z,1.79
2023-01-30T01:49:32.649Z,1.79
2023-01-30T01:50:55.991Z,1.78
2023-01-30T01:52:04.209Z,1.78
2023-01-30T01:53:08.463Z,1.79
2023-01-30T01:54:14.319Z,1.80
2023-01-30T01:55:18.347Z,1.80
2023-01-30T01:56:21.857Z,1.80
2023-01-30T01:57:24.611Z,1.80
2023-01-30T01:58:39.675Z,1.81
2023-01-30T01:59:51.575Z,1.81
2023-01-30T02:00:56.187Z,1.81
2023-01-30T02:02:01.368Z,1.81
2023-01-30T02:03:10.420Z,1.81
2023-01-30T02:04:13.255Z,1.81
2023-01-30T02:05:20.742Z,1.81
2023-01-30T02:06:23.851Z,1.80
2023-01-30T02:07:27.232Z,1.80
2023-01-30T02:08:33.184Z,1.81
2023-01-30T02:09:36.773Z,1.81
2023-01-30T02:10:48.711Z,1.81
2023-01-30T02:11:56.081Z,1.80
2023-01-30T02:12:58.813Z,1.80
2023-01-30T02:14:02.543Z,1.80
2023-01-30T02:15:06.089Z,1.79
2023-01-30T02:16:09.656Z,1.79
2023-01-30T02:17:13.496Z,1.79
2023-01-30T02:18:16.664Z,1.78
2023-01-30T02:19:42.569Z,1.78
2023-01-30T02:21:03.917Z,1.77
2023-01-30T02:22:18.785Z,1.77
2023-01-30T02:23:40.665Z,1.76
2023-01-30T02:25:03.674Z,1.75
2023-01-30T02:26:12.683Z,1.74
2023-01-30T02:27:20.602Z,1.73
2023-01-30T02:28:42.049Z,1.72
2023-01-30T02:29:54.001Z,1.72
2023-01-30T02:31:02.877Z,1.70
2023-01-30T02:32:09.384Z,1.70
2023-01-30T02:33:12.159Z,1.69
2023-01-30T02:34:30.199Z,1.69
2023-01-30T02:35:45.069Z,1.69
2023-01-30T02:36:59.906Z,1.68
2023-01-30T02:38:02.694Z,1.67
2023-01-30T02:39:08.523Z,1.67
2023-01-30T02:40:26.936Z,1.66
2023-01-30T02:41:48.552Z,1.66
2023-01-30T02:43:10.269Z,1.65
2023-01-30T02:44:27.700Z,1.65
2023-01-30T02:45:56.771Z,1.64
2023-01-30T02:46:59.491Z,1.64
2023-01-30T02:48:05.031Z,1.63
2023-01-30T02:49:10.953Z,1.63
2023-01-30T02:50:19.248Z,1.63
2023-01-30T02:51:34.494Z,1.62
2023-01-30T02:52:37.596Z,1.62
2023-01-30T02:53:40.546Z,1.61
2023-01-30T02:54:43.609Z,1.60
2023-01-30T02:55:46.868Z,1.61
2023-01-30T02:56:52.721Z,1.61
2023-01-30T02:57:58.002Z,1.61
2023-01-30T02:59:06.185Z,1.61
2023-01-30T03:00:11.135Z,1.60
2023-01-30T03:01:16.905Z,1.60
2023-01-30T03:02:19.663Z,1.60
2023-01-30T03:03:26.082Z,1.60
2023-01-30T03:04:57.774Z,1.59
2023-01-30T03:06:28.418Z,1.59
2023-01-30T03:07:43.555Z,1.58
2023-01-30T03:08:49.179Z,1.58
2023-01-30T03:10:02.850Z,1.58
2023-01-30T03:11:08.290Z,1.56
2023-01-30T03:12:18.534Z,1.56
2023-01-30T03:13:42.693Z,1.56
2023-01-30T03:14:45.560Z,1.55
2023-01-30T03:15:51.198Z,1.54
2023-01-30T03:16:57.179Z,1.53
2023-01-30T03:18:01.429Z,1.53
2023-01-30T03:19:06.529Z,1.52
2023-01-30T03:20:09.979Z,1.52
2023-01-30T03:21:12.841Z,1.51
2023-01-30T03:22:15.631Z,1.49
2023-01-30T03:23:18.462Z,1.48
2023-01-30T03:24:21.278Z,1.48
2023-01-30T03:25:27.065Z,1.47
2023-01-30T03:26:33.090Z,1.46
2023-01-30T03:27:36.262Z,1.45
2023-01-30T03:28:39.449Z,1.43
2023-01-30T03:29:42.303Z,1.42
2023-01-30T03:30:45.290Z,1.39
2023-01-30T03:31:50.388Z,1.39
2023-01-30T03:32:53.482Z,1.37
2023-01-30T03:33:56.349Z,1.35
2023-01-30T03:34:59.551Z,1.34
2023-01-30T03:36:03.287Z,1.32
2023-01-30T03:37:06.257Z,1.32
2023-01-30T03:38:10.471Z,1.30
2023-01-30T03:39:13.432Z,1.29
2023-01-30T03:40:17.370Z,1.27
2023-01-30T03:41:20.543Z,1.26
2023-01-30T03:42:23.467Z,1.24
2023-01-30T03:43:26.319Z,1.23
2023-01-30T03:44:29.123Z,1.21
2023-01-30T03:45:31.939Z,1.21
2023-01-30T03:46:34.798Z,1.19
2023-01-30T03:47:37.607Z,1.18
2023-01-30T03:48:41.014Z,1.16
2023-01-30T03:49:46.751Z,1.15
2023-01-30T03:50:49.525Z,1.15
2023-01-30T03:51:52.643Z,1.15
2023-01-30T03:52:55.474Z,1.14
2023-01-30T03:53:59.067Z,1.13
2023-01-30T03:55:02.713Z,1.12
2023-01-30T03:56:06.407Z,1.12
2023-01-30T03:57:10.212Z,1.12
2023-01-30T03:58:13.316Z,1.11
2023-01-30T03:59:16.112Z,1.11
2023-01-30T04:00:24.798Z,1.10
2023-01-30T04:01:28.625Z,1.11
2023-01-30T04:02:31.436Z,1.10
2023-01-30T04:03:35.603Z,1.10
2023-01-30T04:04:38.440Z,1.10
2023-01-30T04:05:43.464Z,1.09
2023-01-30T04:06:46.252Z,1.09
2023-01-30T04:07:49.243Z,1.09
2023-01-30T04:08:53.076Z,1.08
2023-01-30T04:10:05.771Z,1.08
2023-01-30T04:11:08.714Z,1.07
2023-01-30T04:12:11.514Z,1.06
2023-01-30T04:13:18.876Z,1.06
2023-01-30T04:14:21.667Z,1.05
2023-01-30T04:15:50.487Z,1.05
2023-01-30T04:17:25.440Z,1.04
2023-01-30T04:18:48.367Z,1.05
2023-01-30T04:19:56.163Z,1.05
2023-01-30T04:20:59.009Z,1.04
2023-01-30T04:22:08.031Z,1.04
2023-01-30T04:23:11.710Z,1.05
2023-01-30T04:24:14.815Z,1.05
2023-01-30T04:25:18.106Z,1.05
2023-01-30T04:26:21.125Z,1.05
2023-01-30T04:27:24.072Z,1.05
2023-01-30T04:28:47.061Z,1.06
2023-01-30T04:29:50.371Z,1.07
2023-01-30T04:30:53.632Z,1.07
2023-01-30T04:32:15.142Z,1.08
2023-01-30T04:33:18.144Z,1.08
2023-01-30T04:34:21.105Z,1.08
2023-01-30T04:35:25.294Z,1.09
2023-01-30T04:36:29.490Z,1.10
2023-01-30T04:37:32.850Z,1.10
2023-01-30T04:38:36.126Z,1.11
2023-01-30T04:39:39.983Z,1.11
2023-01-30T04:40:47.704Z,1.11
2023-01-30T04:41:51.243Z,1.12
2023-01-30T04:42:54.840Z,1.12
2023-01-30T04:44:15.643Z,1.12
2023-01-30T04:45:34.187Z,1.12
2023-01-30T04:46:37.039Z,1.12
2023-01-30T04:47:39.963Z,1.12
2023-01-30T04:48:42.947Z,1.12
2023-01-30T04:49:45.834Z,1.12
2023-01-30T04:50:49.954Z,1.12
2023-01-30T04:51:53.088Z,1.12
2023-01-30T04:52:55.868Z,1.13
2023-01-30T04:53:58.752Z,1.13
2023-01-30T04:55:01.976Z,1.12
2023-01-30T04:56:05.021Z,1.12
2023-01-30T04:57:07.833Z,1.12
2023-01-30T04:58:10.720Z,1.12
2023-01-30T04:59:13.537Z,1.12
2023-01-30T05:00:18.958Z,1.12
2023-01-30T05:01:31.497Z,1.12
2023-01-30T05:02:34.603Z,1.12
2023-01-30T05:03:37.361Z,1.13
2023-01-30T05:04:40.109Z,1.13
2023-01-30T05:05:45.932Z,1.13
2023-01-30T05:06:48.743Z,1.14
2023-01-30T05:07:51.615Z,1.14
2023-01-30T05:08:55.373Z,1.14
2023-01-30T05:09:58.125Z,1.15
2023-01-30T05:11:01.046Z,1.15
2023-01-30T05:12:03.987Z,1.15
2023-01-30T05:13:07.054Z,1.15
2023-01-30T05:14:09.840Z,1.15
2023-01-30T05:15:13.629Z,1.16
2023-01-30T05:16:17.134Z,1.15
2023-01-30T05:17:20.070Z,1.16
2023-01-30T05:18:22.880Z,1.16
2023-01-30T05:19:25.720Z,1.16
2023-01-30T05:20:28.932Z,1.16
2023-01-30T05:21:31.721Z,1.17
2023-01-30T05:22:34.476Z,1.17
2023-01-30T05:23:37.244Z,1.17
2023-01-30T05:24:40.044Z,1.18
2023-01-30T05:25:42.845Z,1.18
2023-01-30T05:26:45.639Z,1.17
2023-01-30T05:27:48.436Z,1.17
2023-01-30T05:28:54.140Z,1.18
2023-01-30T05:29:56.896Z,1.18
2023-01-30T05:31:03.445Z,1.17
2023-01-30T05:32:06.457Z,1.17
2023-01-30T05:33:09.211Z,1.16
2023-01-30T05:34:12.608Z,1.15
2023-01-30T05:35:15.430Z,1.15
2023-01-30T05:36:19.306Z,1.15
2023-01-30T05:37:22.413Z,1.15
2023-01-30T05:38:25.999Z,1.15
2023-01-30T05:39:29.193Z,1.14
2023-01-30T05:40:31.951Z,1.14
2023-01-30T05:41:34.716Z,1.14
2023-01-30T05:42:37.490Z,1.14
2023-01-30T05:43:40.598Z,1.14
2023-01-30T05:44:43.774Z,1.13
2023-01-30T05:45:52.639Z,1.13
2023-01-30T05:46:55.451Z,1.13
2023-01-30T05:48:01.246Z,1.14
2023-01-30T05:49:04.594Z,1.14
2023-01-30T05:50:07.926Z,1.14
2023-01-30T05:51:21.806Z,1.14
2023-01-30T05:52:24.592Z,1.14
2023-01-30T05:53:28.618Z,1.14
2023-01-30T05:54:31.356Z,1.14
2023-01-30T05:55:34.100Z,1.13
2023-01-30T05:56:36.933Z,1.14
2023-01-30T05:57:40.250Z,1.14
2023-01-30T05:58:43.625Z,1.14
2023-01-30T05:59:46.568Z,1.14
2023-01-30T06:00:49.408Z,1.14
2023-01-30T06:01:52.183Z,1.14
2023-01-30T06:02:54.937Z,1.14
2023-01-30T06:03:58.813Z,1.13
2023-01-30T06:05:01.597Z,1.14
2023-01-30T06:06:05.535Z,1.14
2023-01-30T06:07:08.420Z,1.14
2023-01-30T06:08:11.299Z,1.14
2023-01-30T06:09:14.079Z,1.14
2023-01-30T06:10:17.026Z,1.14
2023-01-30T06:11:19.748Z,1.13
2023-01-30T06:12:22.515Z,1.13
2023-01-30T06:13:25.347Z,1.13
2023-01-30T06:14:28.194Z,1.13
2023-01-30T06:15:31.130Z,1.13
2023-01-30T06:16:33.954Z,1.13
2023-01-30T06:17:36.815Z,1.13
2023-01-30T06:18:39.930Z,1.12
2023-01-30T06:19:45.745Z,1.12
2023-01-30T06:20:51.943Z,1.12
2023-01-30T06:21:54.755Z,1.12
2023-01-30T06:22:57.539Z,1.12
2023-01-30T06:24:00.343Z,1.12
2023-01-30T06:25:03.692Z,1.11
2023-01-30T06:26:09.072Z,1.11
2023-01-30T06:27:12.397Z,1.12
2023-01-30T06:28:15.710Z,1.11
2023-01-30T06:29:18.421Z,1.11
2023-01-30T06:30:21.312Z,1.11
2023-01-30T06:31:24.207Z,1.11
2023-01-30T06:32:26.979Z,1.11
2023-01-30T06:33:29.745Z,1.10
2023-01-30T06:34:32.521Z,1.11
2023-01-30T06:35:37.117Z,1.10
2023-01-30T06:36:39.815Z,1.11
2023-01-30T06:37:44.171Z,1.11
2023-01-30T06:38:47.272Z,1.12
2023-01-30T06:39:50.075Z,1.12
2023-01-30T06:40:52.811Z,1.12
2023-01-30T06:41:55.668Z,1.12
2023-01-30T06:42:58.467Z,1.12
2023-01-30T06:44:01.343Z,1.13
2023-01-30T06:45:04.240Z,1.14
2023-01-30T06:46:07.047Z,1.15
2023-01-30T06:47:09.864Z,1.15
2023-01-30T06:48:12.689Z,1.15
2023-01-30T06:49:15.450Z,1.15
2023-01-30T06:50:19.399Z,1.16
2023-01-30T06:51:22.152Z,1.15
2023-01-30T06:52:24.932Z,1.15
2023-01-30T06:53:30.657Z,1.16
2023-01-30T06:54:33.561Z,1.15
2023-01-30T06:55:36.582Z,1.15
2023-01-30T06:56:39.385Z,1.16
2023-01-30T06:57:43.203Z,1.15
2023-01-30T06:58:46.042Z,1.15
2023-01-30T06:59:48.781Z,1.15
2023-01-30T07:00:51.553Z,1.15
2023-01-30T07:01:54.468Z,1.15
2023-01-30T07:02:57.509Z,1.15
2023-01-30T07:04:00.363Z,1.15
2023-01-30T07:05:04.617Z,1.15
2023-01-30T07:06:07.592Z,1.15
2023-01-30T07:07:10.364Z,1.15
2023-01-30T07:08:13.795Z,1.16
2023-01-30T07:09:16.660Z,1.16
2023-01-30T07:10:19.417Z,1.16
2023-01-30T07:11:22.165Z,1.16
2023-01-30T07:12:25.530Z,1.17
2023-01-30T07:13:28.282Z,1.17
2023-01-30T07:14:31.438Z,1.18
2023-01-30T07:15:34.419Z,1.18
2023-01-30T07:16:37.229Z,1.18
2023-01-30T07:17:40.878Z,1.18
2023-01-30T07:18:43.714Z,1.18
2023-01-30T07:19:46.554Z,1.18
2023-01-30T07:20:50.628Z,1.19
2023-01-30T07:21:54.192Z,1.18
2023-01-30T07:22:57.033Z,1.19
2023-01-30T07:23:59.879Z,1.18
2023-01-30T07:25:02.634Z,1.18
2023-01-30T07:26:06.002Z,1.19
2023-01-30T07:27:09.756Z,1.18
2023-01-30T07:28:12.598Z,1.18
2023-01-30T07:29:15.353Z,1.18
2023-01-30T07:30:18.502Z,1.17
2023-01-30T07:31:21.544Z,1.17
2023-01-30T07:32:24.347Z,1.17
2023-01-30T07:33:27.119Z,1.16
2023-01-30T07:34:29.974Z,1.16
2023-01-30T07:35:33.430Z,1.15
2023-01-30T07:36:37.876Z,1.14
2023-01-30T07:37:40.672Z,1.13
2023-01-30T07:38:43.417Z,1.12
2023-01-30T07:39:46.178Z,1.09
2023-01-30T07:40:48.977Z,1.07
2023-01-30T07:41:55.966Z,1.05
2023-01-30T07:43:04.936Z,1.02
2023-01-30T07:44:09.323Z,0.99
2023-01-30T07:45:12.203Z,0.96
2023-01-30T07:46:14.964Z,0.94
2023-01-30T07:47:20.260Z,0.92
2023-01-30T07:48:23.562Z,0.90
2023-01-30T07:49:26.545Z,0.88
2023-01-30T07:50:29.444Z,0.85
2023-01-30T07:51:32.228Z,0.84
2023-01-30T07:52:34.986Z,0.82
2023-01-30T07:53:37.759Z,0.81
2023-01-30T07:54:40.513Z,0.80
2023-01-30T07:55:43.600Z,0.78
2023-01-30T07:56:46.395Z,0.77
2023-01-30T07:57:49.197Z,0.76
2023-01-30T07:58:52.235Z,0.75
2023-01-30T07:59:54.994Z,0.75
2023-01-30T08:00:57.821Z,0.74
2023-01-30T08:02:00.935Z,0.73
2023-01-30T08:04:31.089Z,0.69
2023-01-30T08:05:33.832Z,0.67
2023-01-30T08:06:39.355Z,0.67
2023-01-30T08:07:42.229Z,0.63
2023-01-30T08:08:45.266Z,0.61
2023-01-30T08:09:48.089Z,0.59
2023-01-30T08:10:50.852Z,0.56
2023-01-30T08:11:53.670Z,0.57
2023-01-30T08:12:56.422Z,0.53
2023-01-30T08:13:59.164Z,0.54
2023-01-30T08:15:01.950Z,0.54
2023-01-30T08:16:06.145Z,0.54
2023-01-30T08:17:09.006Z,0.54
2023-01-30T08:18:11.841Z,0.55
2023-01-30T08:19:14.861Z,0.56
2023-01-30T08:20:18.471Z,0.57
2023-01-30T08:21:21.500Z,0.57
2023-01-30T08:22:24.244Z,0.58
2023-01-30T08:23:27.157Z,0.59
2023-01-30T08:24:30.603Z,0.60
2023-01-30T08:25:34.669Z,0.60
2023-01-30T08:26:37.455Z,0.60
2023-01-30T08:27:40.202Z,0.60
2023-01-30T08:28:42.950Z,0.59
2023-01-30T08:29:45.723Z,0.58
2023-01-30T08:30:49.305Z,0.57
2023-01-30T08:31:56.626Z,0.56
2023-01-30T08:32:59.429Z,0.55
2023-01-30T08:34:02.184Z,0.55
2023-01-30T08:35:05.116Z,0.53
2023-01-30T08:36:08.122Z,0.53
2023-01-30T08:37:10.852Z,0.53
2023-01-30T08:38:13.903Z,0.53
2023-01-30T08:39:16.710Z,0.53
2023-01-30T08:40:19.826Z,0.53
2023-01-30T08:41:22.829Z,0.54
2023-01-30T08:42:25.645Z,0.55
2023-01-30T08:43:28.525Z,0.55
2023-01-30T08:44:31.327Z,0.54
2023-01-30T08:45:34.518Z,0.53
2023-01-30T08:46:37.617Z,0.54
2023-01-30T08:47:40.442Z,0.55
2023-01-30T08:48:50.012Z,0.54
2023-01-30T08:49:53.155Z,0.54
2023-01-30T08:50:56.360Z,0.54
2023-01-30T08:51:59.158Z,0.54
2023-01-30T08:53:06.399Z,0.55
2023-01-30T08:54:09.336Z,0.54
2023-01-30T08:55:12.130Z,0.55
2023-01-30T08:56:14.940Z,0.55
2023-01-30T08:57:17.725Z,0.54
2023-01-30T08:58:21.334Z,0.55
2023-01-30T08:59:24.103Z,0.54
2023-01-30T09:00:27.532Z,0.55
2023-01-30T09:01:30.467Z,0.55
2023-01-30T09:02:33.358Z,0.55
2023-01-30T09:03:36.190Z,0.54
2023-01-30T09:04:38.997Z,0.54
2023-01-30T09:05:41.817Z,0.52
2023-01-30T09:06:44.592Z,0.53
2023-01-30T09:07:47.393Z,0.53
2023-01-30T09:08:50.277Z,0.54
2023-01-30T09:09:53.032Z,0.55
2023-01-30T09:10:59.549Z,0.56
2023-01-30T09:12:02.367Z,0.56
2023-01-30T09:13:05.612Z,0.57
2023-01-30T09:14:08.397Z,0.59
2023-01-30T09:15:11.505Z,0.60
2023-01-30T09:16:14.346Z,0.60
2023-01-30T09:17:17.166Z,0.61
2023-01-30T09:18:20.393Z,0.61
2023-01-30T09:19:24.173Z,0.63
2023-01-30T09:20:27.016Z,0.64
2023-01-30T09:21:30.662Z,0.67
2023-01-30T09:22:33.403Z,0.69
2023-01-30T09:23:37.013Z,0.70
2023-01-30T09:24:39.745Z,0.71
2023-01-30T09:25:45.190Z,0.74
2023-01-30T09:26:48.286Z,0.75
2023-01-30T09:27:57.913Z,0.76
2023-01-30T09:29:01.304Z,0.78
2023-01-30T09:30:05.059Z,0.78
2023-01-30T09:31:08.276Z,0.79
2023-01-30T09:32:11.073Z,0.79
2023-01-30T09:33:16.440Z,0.79
2023-01-30T09:34:19.427Z,0.78
2023-01-30T09:35:22.198Z,0.78
2023-01-30T09:36:24.957Z,0.78
2023-01-30T09:37:27.722Z,0.78
2023-01-30T09:38:30.527Z,0.78
2023-01-30T09:39:33.367Z,0.79
2023-01-30T09:40:41.469Z,0.80
2023-01-30T09:41:59.041Z,0.81
2023-01-30T09:43:20.489Z,0.82
2023-01-30T09:44:41.509Z,0.82
2023-01-30T09:45:46.903Z,0.84
2023-01-30T09:46:49.721Z,0.86
2023-01-30T09:48:06.273Z,0.87
2023-01-30T09:49:29.954Z,0.90
2023-01-30T09:50:48.154Z,0.92
2023-01-30T09:51:54.408Z,0.94
2023-01-30T09:53:03.422Z,0.95
2023-01-30T09:54:18.150Z,0.97
2023-01-30T09:55:21.041Z,0.96
2023-01-30T09:56:24.381Z,0.99
2023-01-30T09:57:27.507Z,1.00
2023-01-30T09:59:02.528Z,1.00
2023-01-30T10:00:15.269Z,1.01
2023-01-30T10:01:25.819Z,1.02
2023-01-30T10:02:34.709Z,1.02
2023-01-30T10:03:41.588Z,1.04
2023-01-30T10:05:00.654Z,1.04
2023-01-30T10:06:11.393Z,1.05
2023-01-30T10:07:22.016Z,1.05
2023-01-30T10:08:40.093Z,1.05
2023-01-30T10:09:51.026Z,1.05
2023-01-30T10:11:09.897Z,1.04
2023-01-30T10:12:26.965Z,1.05
2023-01-30T10:13:29.654Z,1.05
2023-01-30T10:14:36.464Z,1.05
2023-01-30T10:15:48.241Z,1.05
2023-01-30T10:17:20.211Z,1.05
2023-01-30T10:18:25.914Z,1.05
2023-01-30T10:19:35.918Z,1.06
2023-01-30T10:20:48.440Z,1.05
2023-01-30T10:22:20.675Z,1.05
2023-01-30T10:23:34.543Z,1.05
2023-01-30T10:24:40.074Z,1.06
2023-01-30T10:25:46.342Z,1.06
2023-01-30T10:26:49.330Z,1.05
2023-01-30T10:27:59.420Z,1.04
2023-01-30T10:29:20.733Z,1.05
2023-01-30T10:30:23.981Z,1.05
2023-01-30T10:31:28.771Z,1.05
2023-01-30T10:32:51.559Z,1.04
2023-01-30T10:34:05.768Z,1.05
2023-01-30T10:35:19.490Z,1.05
2023-01-30T10:36:25.206Z,1.05
2023-01-30T10:37:31.133Z,1.05
2023-01-30T10:38:37.574Z,1.05
2023-01-30T10:39:54.947Z,1.05
2023-01-30T10:41:04.015Z,1.05
2023-01-30T10:42:11.936Z,1.06
2023-01-30T10:43:37.017Z,1.08
2023-01-30T10:44:42.994Z,1.09
2023-01-30T10:45:48.449Z,1.11
2023-01-30T10:47:00.986Z,1.12
2023-01-30T10:48:28.659Z,1.13
2023-01-30T10:49:37.325Z,1.15
2023-01-30T10:50:59.001Z,1.17
2023-01-30T10:52:20.217Z,1.18
2023-01-30T10:53:28.486Z,1.19
2023-01-30T10:54:37.963Z,1.18
2023-01-30T10:55:40.705Z,1.18
2023-01-30T10:56:51.017Z,1.19
2023-01-30T10:57:54.528Z,1.19
2023-01-30T10:59:15.948Z,1.20
2023-01-30T11:00:21.466Z,1.21
2023-01-30T11:01:26.214Z,1.22
2023-01-30T11:02:31.995Z,1.24
2023-01-30T11:03:41.669Z,1.25
2023-01-30T11:04:44.384Z,1.28
2023-01-30T11:06:13.320Z,1.29
2023-01-30T11:07:16.493Z,1.29
2023-01-30T11:08:21.439Z,1.30
2023-01-30T11:09:24.754Z,1.33
2023-01-30T11:10:27.780Z,1.34
2023-01-30T11:11:30.603Z,1.35
2023-01-30T11:12:33.343Z,1.37
2023-01-30T11:13:37.635Z,1.37
2023-01-30T11:14:50.138Z,1.38
2023-01-30T11:15:54.671Z,1.39
2023-01-30T11:16:58.472Z,1.40
2023-01-30T11:18:41.070Z,1.43
2023-01-30T11:19:32.997Z,1.44
2023-01-30T11:20:43.725Z,1.46
2023-01-30T11:21:53.835Z,1.47
2023-01-30T11:23:07.408Z,1.49
2023-01-30T11:24:17.290Z,1.52
2023-01-30T11:25:22.199Z,1.54
2023-01-30T11:26:37.745Z,1.56
2023-01-30T11:27:51.478Z,1.59
2023-01-30T11:28:54.253Z,1.60
2023-01-30T11:30:06.606Z,1.63
2023-01-30T11:31:31.568Z,1.66
2023-01-30T11:32:46.666Z,1.71
2023-01-30T11:33:59.949Z,1.75
2023-01-30T11:35:19.984Z,1.79
2023-01-30T11:36:30.065Z,1.84
2023-01-30T11:37:37.224Z,1.89
2023-01-30T11:38:53.291Z,1.93
2023-01-30T11:39:56.188Z,1.97
2023-01-30T11:41:18.796Z,1.98
2023-01-30T11:42:25.309Z,2.00
2023-01-30T11:43:28.842Z,2.01
2023-01-30T11:44:36.680Z,2.00
2023-01-30T11:45:45.545Z,1.99
2023-01-30T11:46:49.429Z,2.00
2023-01-30T11:48:02.690Z,2.01
2023-01-30T11:49:46.233Z,2.02
2023-01-30T11:51:32.256Z,2.03
2023-01-30T11:52:04.634Z,2.03
2023-01-30T11:53:15.108Z,2.04
2023-01-30T11:54:19.732Z,2.05
2023-01-30T11:55:22.556Z,2.04
2023-01-30T11:56:32.535Z,2.03
2023-01-30T11:57:50.641Z,2.02
2023-01-30T11:58:59.033Z,1.99
2023-01-30T12:00:02.204Z,1.98
2023-01-30T12:01:14.512Z,1.96
2023-01-30T12:02:20.348Z,1.95
2023-01-30T12:03:25.764Z,1.94
2023-01-30T12:04:28.732Z,1.92
2023-01-30T12:05:32.175Z,1.92
2023-01-30T12:06:36.837Z,1.91
2023-01-30T12:07:39.572Z,1.89
2023-01-30T12:08:43.040Z,1.87
2023-01-30T12:09:45.934Z,1.85
2023-01-30T12:10:50.814Z,1.84
2023-01-30T12:11:53.591Z,1.83
2023-01-30T12:13:00.124Z,1.83
2023-01-30T12:14:27.149Z,1.83
2023-01-30T12:15:31.804Z,1.82
2023-01-30T12:16:34.542Z,1.79
2023-01-30T12:17:37.497Z,1.83
2023-01-30T12:18:57.228Z,1.82
2023-01-30T12:20:14.318Z,1.82
2023-01-30T12:21:35.907Z,1.82
2023-01-30T12:22:41.878Z,1.82
2023-01-30T12:24:01.498Z,1.82
2023-01-30T12:25:16.442Z,1.83
2023-01-30T12:26:32.101Z,1.83
2023-01-30T12:29:05.886Z,1.85
2023-01-30T12:30:21.030Z,1.87
2023-01-30T12:31:36.055Z,1.88
2023-01-30T12:32:38.994Z,1.88
2023-01-30T12:33:41.782Z,1.89
2023-01-30T12:34:45.665Z,1.89
2023-01-30T12:35:54.276Z,1.88
2023-01-30T12:36:56.965Z,1.89
2023-01-30T12:38:22.825Z,1.88
2023-01-30T12:39:34.906Z,1.88
2023-01-30T12:40:53.926Z,1.88
2023-01-30T12:42:08.753Z,1.88
2023-01-30T12:43:29.365Z,1.89
2023-01-30T12:44:54.002Z,1.89
2023-01-30T12:45:56.760Z,1.88
2023-01-30T12:47:18.677Z,1.89
2023-01-30T12:48:24.555Z,1.88
2023-01-30T12:49:42.800Z,1.89
2023-01-30T12:50:45.573Z,1.89
2023-01-30T12:52:07.066Z,1.90
2023-01-30T12:53:19.619Z,1.90
2023-01-30T12:54:22.497Z,1.90
2023-01-30T12:55:28.250Z,1.91
2023-01-30T12:56:46.891Z,1.90
2023-01-30T12:57:53.532Z,1.90
2023-01-30T12:59:11.686Z,1.89
2023-01-30T13:00:29.444Z,1.89
2023-01-30T13:01:38.304Z,1.88
2023-01-30T13:02:50.185Z,1.88
2023-01-30T13:03:52.959Z,1.88
2023-01-30T13:05:14.423Z,1.88
2023-01-30T13:06:20.096Z,1.87
2023-01-30T13:07:28.710Z,1.87
2023-01-30T13:08:46.198Z,1.88
2023-01-30T13:10:09.806Z,1.87
2023-01-30T13:11:31.329Z,1.88
2023-01-30T13:12:51.961Z,1.88
2023-01-30T13:13:57.786Z,1.88
2023-01-30T13:15:08.479Z,1.89
2023-01-30T13:16:20.385Z,1.89
2023-01-30T13:17:41.381Z,1.88
2023-01-30T13:19:10.540Z,1.90
2023-01-30T13:20:13.361Z,1.91
2023-01-30T13:21:19.950Z,1.92
2023-01-30T13:22:35.183Z,1.94
2023-01-30T13:23:49.840Z,1.94
2023-01-30T13:25:01.736Z,1.94
2023-01-30T13:26:04.868Z,1.95
2023-01-30T13:27:09.768Z,1.96
2023-01-30T13:28:15.019Z,1.95
2023-01-30T13:29:28.603Z,1.96
2023-01-30T13:30:34.070Z,1.96
2023-01-30T13:31:39.529Z,1.96
2023-01-30T13:32:47.885Z,1.96
2023-01-30T13:33:52.682Z,1.97
2023-01-30T13:34:57.001Z,1.97
2023-01-30T13:36:07.087Z,1.98
2023-01-30T13:37:14.804Z,1.98
2023-01-30T13:38:20.090Z,1.99
2023-01-30T13:39:27.528Z,2.00
2023-01-30T13:40:36.168Z,2.00
2023-01-30T13:41:50.307Z,2.01
2023-01-30T13:42:53.186Z,2.02
2023-01-30T13:43:56.220Z,2.02
2023-01-30T13:45:00.733Z,2.02
2023-01-30T13:46:07.534Z,2.02
2023-01-30T13:47:28.860Z,2.02
2023-01-30T13:48:43.523Z,2.04
2023-01-30T13:50:05.385Z,2.05
2023-01-30T13:51:16.928Z,2.06
2023-01-30T13:52:37.686Z,2.06
2023-01-30T13:54:00.747Z,2.06
2023-01-30T13:55:26.369Z,2.07
2023-01-30T13:56:43.697Z,2.06
2023-01-30T13:57:49.355Z,2.07
2023-01-30T13:58:55.498Z,2.07
2023-01-30T14:00:10.725Z,2.07
2023-01-30T14:01:16.610Z,2.07
2023-01-30T14:02:21.393Z,2.07
2023-01-30T14:03:24.369Z,2.09
2023-01-30T14:04:36.996Z,2.09
2023-01-30T14:05:51.907Z,2.11
2023-01-30T14:06:54.695Z,2.12
2023-01-30T14:07:57.605Z,2.13
2023-01-30T14:09:02.910Z,2.14
2023-01-30T14:10:08.495Z,2.14
2023-01-30T14:11:32.366Z,2.15
2023-01-30T14:12:40.159Z,2.15
2023-01-30T14:13:51.538Z,2.16
2023-01-30T14:15:18.931Z,2.17
2023-01-30T14:16:21.924Z,2.18
2023-01-30T14:17:24.968Z,2.18
2023-01-30T14:18:27.749Z,2.19
2023-01-30T14:19:33.617Z,2.19
2023-01-30T14:20:37.650Z,2.19
2023-01-30T14:21:40.527Z,2.19
2023-01-30T14:22:55.157Z,2.20
2023-01-30T14:24:00.373Z,2.22
2023-01-30T14:25:22.066Z,2.22
2023-01-30T14:26:43.896Z,2.22
2023-01-30T14:27:46.834Z,2.23
2023-01-30T14:28:50.152Z,2.23
2023-01-30T14:29:54.037Z,2.23
2023-01-30T14:30:59.168Z,2.22
2023-01-30T14:32:02.130Z,2.23
2023-01-30T14:33:24.888Z,2.23
2023-01-30T14:34:53.099Z,2.23
2023-01-30T14:35:59.169Z,2.24
2023-01-30T14:37:24.284Z,2.24
2023-01-30T14:38:30.880Z,2.24
2023-01-30T14:39:37.843Z,2.24
2023-01-30T14:40:41.942Z,2.24
2023-01-30T14:41:44.732Z,2.24
2023-01-30T14:43:06.250Z,2.25
2023-01-30T14:44:09.059Z,2.24
2023-01-30T14:45:16.934Z,2.24
2023-01-30T14:46:19.967Z,2.24
2023-01-30T14:47:33.953Z,2.23
2023-01-30T14:49:01.888Z,2.23
2023-01-30T14:50:16.574Z,2.23
2023-01-30T14:51:19.457Z,2.23
2023-01-30T14:52:42.495Z,2.23
2023-01-30T14:53:56.921Z,2.23